createdAt,value
2022-09-23T00:01:11.093Z,65.59
2022-09-23T00:03:41.943Z,63.64
2022-09-23T00:06:14.755Z,62.75
2022-09-23T00:08:42.331Z,64.18
2022-09-23T00:11:21.082Z,64.05
2022-09-23T00:13:50.409Z,62.63
2022-09-23T00:16:21.513Z,62.55
2022-09-23T00:18:50.631Z,63.19
2022-09-23T00:21:19.591Z,63.15
2022-09-23T00:23:47.479Z,65.00
2022-09-23T00:26:16.995Z,64.57
2022-09-23T00:28:44.752Z,64.50
2022-09-23T00:31:15.361Z,65.58
2022-09-23T00:33:43.155Z,64.27
2022-09-23T00:36:15.177Z,64.32
2022-09-23T00:38:44.298Z,64.94
2022-09-23T00:41:17.663Z,66.62
2022-09-23T00:43:51.214Z,66.63
2022-09-23T00:46:24.803Z,64.67
2022-09-23T00:49:00.558Z,66.18
2022-09-23T00:51:34.542Z,67.99
2022-09-23T00:54:02.743Z,67.57
2022-09-23T00:56:30.744Z,66.34
2022-09-23T00:58:58.205Z,65.98
2022-09-23T01:01:25.923Z,64.52
2022-09-23T01:03:54.462Z,64.52
2022-09-23T01:06:21.811Z,64.80
2022-09-23T01:08:49.539Z,66.00
2022-09-23T01:11:54.486Z,65.73
2022-09-23T01:14:59.175Z,64.86
2022-09-23T01:17:39.494Z,67.00
2022-09-23T01:20:31.259Z,67.57
2022-09-23T01:23:52.873Z,66.29
2022-09-23T01:26:39.087Z,64.84
2022-09-23T01:29:25.636Z,64.50
2022-09-23T01:32:04.063Z,65.19
2022-09-23T01:34:35.088Z,66.36
2022-09-23T01:37:26.566Z,67.40
2022-09-23T01:40:04.213Z,65.42
2022-09-23T01:42:39.501Z,65.39
2022-09-23T01:45:32.399Z,66.91
2022-09-23T01:48:36.955Z,66.99
2022-09-23T01:51:12.775Z,66.87
2022-09-23T01:53:50.605Z,64.96
2022-09-23T01:56:25.190Z,66.54
2022-09-23T01:58:55.985Z,64.82
2022-09-23T02:01:37.524Z,65.13
2022-09-23T02:04:25.722Z,64.38
2022-09-23T02:06:56.365Z,65.22
2022-09-23T02:09:26.052Z,66.36
2022-09-23T02:11:58.854Z,65.07
2022-09-23T02:14:36.805Z,67.67
2022-09-23T02:17:09.865Z,68.18
2022-09-23T02:19:44.552Z,68.47
2022-09-23T02:22:17.052Z,69.29
2022-09-23T02:24:45.144Z,68.66
2022-09-23T02:27:20.704Z,65.84
2022-09-23T02:30:11.458Z,65.92
2022-09-23T02:33:05.429Z,64.58
2022-09-23T02:35:37.210Z,64.64
2022-09-23T02:38:17.931Z,64.81
2022-09-23T02:40:52.287Z,66.24
2022-09-23T02:43:35.623Z,65.43
2022-09-23T02:46:05.013Z,65.51
2022-09-23T02:48:41.331Z,66.82
2022-09-23T02:51:09.983Z,68.09
2022-09-23T02:53:37.464Z,67.25
2022-09-23T02:56:16.181Z,65.97
2022-09-23T02:58:44.105Z,66.34
2022-09-23T03:01:18.985Z,66.91
2022-09-23T03:04:14.866Z,68.00
2022-09-23T03:06:53.384Z,69.51
2022-09-23T03:09:31.893Z,69.41
2022-09-23T03:12:15.687Z,68.71
2022-09-23T03:15:06.029Z,66.70
2022-09-23T03:17:48.986Z,66.63
2022-09-23T03:20:29.035Z,67.66
2022-09-23T03:23:00.874Z,67.31
2022-09-23T03:25:31.790Z,67.80
2022-09-23T03:28:00.928Z,66.76
2022-09-23T03:30:29.495Z,65.89
2022-09-23T03:32:58.057Z,65.42
2022-09-23T03:35:27.594Z,66.94
2022-09-23T03:38:24.577Z,67.60
2022-09-23T03:40:54.813Z,66.64
2022-09-23T03:43:22.521Z,67.53
2022-09-23T03:45:54.817Z,69.19
2022-09-23T03:48:22.445Z,69.48
2022-09-23T03:50:49.830Z,69.37
2022-09-23T03:53:21.057Z,69.80
2022-09-23T03:55:48.685Z,67.85
2022-09-23T03:58:16.002Z,66.34
2022-09-23T04:00:45.192Z,66.22
2022-09-23T04:03:12.848Z,65.98
2022-09-23T04:05:40.278Z,66.06
2022-09-23T04:08:07.610Z,65.87
2022-09-23T04:10:35.282Z,66.07
2022-09-23T04:13:02.672Z,66.53
2022-09-23T04:15:30.017Z,67.34
2022-09-23T04:17:57.628Z,66.34
2022-09-23T04:20:26.065Z,67.37
2022-09-23T04:22:53.582Z,67.02
2022-09-23T04:25:21.240Z,66.49
2022-09-23T04:27:48.607Z,65.75
2022-09-23T04:30:15.968Z,65.71
2022-09-23T04:32:43.603Z,66.43
2022-09-23T04:35:10.935Z,67.16
2022-09-23T04:37:38.301Z,67.71
2022-09-23T04:40:06.679Z,68.00
2022-09-23T04:42:34.072Z,67.66
2022-09-23T04:45:01.591Z,67.09
2022-09-23T04:47:31.757Z,67.50
2022-09-23T04:50:00.055Z,67.89
2022-09-23T04:52:27.496Z,67.29
2022-09-23T04:54:55.106Z,67.03
2022-09-23T04:57:23.176Z,67.58
2022-09-23T04:59:50.812Z,67.58
2022-09-23T05:02:18.505Z,68.54
2022-09-23T05:04:45.889Z,69.21
2022-09-23T05:07:13.239Z,70.04
2022-09-23T05:09:41.509Z,69.62
2022-09-23T05:12:08.903Z,69.03
2022-09-23T05:14:36.256Z,68.74
2022-09-23T05:17:03.901Z,69.47
2022-09-23T05:19:31.327Z,70.26
2022-09-23T05:21:58.651Z,69.46
2022-09-23T05:24:26.277Z,70.28
2022-09-23T05:26:54.202Z,68.28
2022-09-23T05:29:21.556Z,70.44
2022-09-23T05:31:49.309Z,69.80
2022-09-23T05:34:18.676Z,71.95
2022-09-23T05:36:46.112Z,70.46
2022-09-23T05:39:13.727Z,70.35
2022-09-23T05:41:42.949Z,69.04
2022-09-23T05:44:10.480Z,69.48
2022-09-23T05:46:38.178Z,67.80
2022-09-23T05:49:06.095Z,67.81
2022-09-23T05:51:35.086Z,64.29
2022-09-23T05:54:04.297Z,66.27
2022-09-23T05:56:32.998Z,64.79
2022-09-23T05:59:01.802Z,67.96
2022-09-23T06:01:35.261Z,64.83
2022-09-23T06:04:04.948Z,61.20
2022-09-23T06:06:35.028Z,66.99
2022-09-23T06:09:03.853Z,64.05
2022-09-23T06:11:32.749Z,65.28
2022-09-23T06:14:01.248Z,66.95
2022-09-23T06:16:31.224Z,62.29
2022-09-23T06:19:05.102Z,64.29
2022-09-23T06:21:35.050Z,62.53
2022-09-23T06:24:03.025Z,64.68
2022-09-23T06:26:33.767Z,62.14
2022-09-23T06:29:04.596Z,63.46
2022-09-23T06:31:33.019Z,63.78
2022-09-23T06:34:12.349Z,62.39
2022-09-23T06:36:45.828Z,61.80
2022-09-23T06:39:15.793Z,58.66
2022-09-23T06:41:44.326Z,59.49
2022-09-23T06:44:15.704Z,60.80
2022-09-23T06:46:44.138Z,60.78
2022-09-23T06:49:12.185Z,61.46
2022-09-23T06:51:40.241Z,60.26
2022-09-23T06:54:08.224Z,62.05
2022-09-23T06:56:39.232Z,60.90
2022-09-23T06:59:09.148Z,60.68
2022-09-23T07:01:36.908Z,61.03
2022-09-23T07:04:04.313Z,60.34
2022-09-23T07:06:31.698Z,58.16
2022-09-23T07:09:00.987Z,57.22
2022-09-23T07:11:28.349Z,57.48
2022-09-23T07:13:55.742Z,59.04
2022-09-23T07:16:23.467Z,60.53
2022-09-23T07:18:52.438Z,59.03
2022-09-23T07:21:19.840Z,60.74
2022-09-23T07:23:51.099Z,56.60
2022-09-23T07:26:19.775Z,57.22
2022-09-23T07:28:47.403Z,55.93
2022-09-23T07:31:25.683Z,55.89
2022-09-23T07:33:57.924Z,55.69
2022-09-23T07:36:27.964Z,57.23
2022-09-23T07:39:02.841Z,55.81
2022-09-23T07:41:32.185Z,55.87
2022-09-23T07:44:00.862Z,56.44
2022-09-23T07:46:32.849Z,56.58
2022-09-23T07:49:02.234Z,57.13
2022-09-23T07:51:36.325Z,55.29
2022-09-23T07:54:10.210Z,56.09
2022-09-23T07:56:40.290Z,54.08
2022-09-23T07:59:11.363Z,53.93
2022-09-23T08:01:42.312Z,56.68
2022-09-23T08:04:18.020Z,57.12
2022-09-23T08:06:50.965Z,57.67
2022-09-23T08:09:20.233Z,58.14
2022-09-23T08:11:47.941Z,60.58
2022-09-23T08:14:17.841Z,59.55
2022-09-23T08:16:46.883Z,57.20
2022-09-23T08:19:15.036Z,54.83
2022-09-23T08:21:43.193Z,53.78
2022-09-23T08:24:16.991Z,54.39
2022-09-23T08:26:45.245Z,56.32
2022-09-23T08:29:14.620Z,54.23
2022-09-23T08:31:42.284Z,54.92
2022-09-23T08:34:10.657Z,55.31
2022-09-23T08:36:39.693Z,53.27
2022-09-23T08:39:07.053Z,54.11
2022-09-23T08:41:52.881Z,54.45
2022-09-23T08:44:43.306Z,55.28
2022-09-23T08:47:19.188Z,53.20
2022-09-23T08:50:00.580Z,55.56
2022-09-23T08:52:36.204Z,52.85
2022-09-23T08:55:04.509Z,53.90
2022-09-23T08:57:34.675Z,55.62
2022-09-23T09:00:02.288Z,55.17
2022-09-23T09:02:30.860Z,54.49
2022-09-23T09:05:03.345Z,53.79
2022-09-23T09:07:37.363Z,52.73
2022-09-23T09:10:26.851Z,53.62
2022-09-23T09:13:01.640Z,53.52
2022-09-23T09:15:29.247Z,53.34
2022-09-23T09:18:14.219Z,53.65
2022-09-23T09:21:28.186Z,56.02
2022-09-23T09:23:59.263Z,53.80
2022-09-23T09:26:33.859Z,53.25
2022-09-23T09:29:17.206Z,53.28
2022-09-23T09:31:51.189Z,53.91
2022-09-23T09:34:28.977Z,53.62
2022-09-23T09:37:08.122Z,53.12
2022-09-23T09:39:36.840Z,50.51
2022-09-23T09:42:07.584Z,51.17
2022-09-23T09:45:03.532Z,51.15
2022-09-23T09:47:33.720Z,50.85
2022-09-23T09:50:11.092Z,51.93
2022-09-23T09:52:43.093Z,52.49
2022-09-23T09:55:14.541Z,52.19
2022-09-23T09:57:55.948Z,50.66
2022-09-23T10:00:32.735Z,50.38
2022-09-23T10:03:26.960Z,52.07
2022-09-23T10:05:57.693Z,50.70
2022-09-23T10:08:28.727Z,51.44
2022-09-23T10:10:58.969Z,50.00
2022-09-23T10:13:29.967Z,49.84
2022-09-23T10:16:04.424Z,49.45
2022-09-23T10:18:38.628Z,47.89
2022-09-23T10:21:18.138Z,48.29
2022-09-23T10:23:55.918Z,48.25
2022-09-23T10:26:55.036Z,48.16
2022-09-23T10:29:48.155Z,47.63
2022-09-23T10:32:36.361Z,46.93
2022-09-23T10:35:07.689Z,47.16
2022-09-23T10:37:40.645Z,50.46
2022-09-23T10:40:39.457Z,50.11
2022-09-23T10:43:39.175Z,49.88
2022-09-23T10:46:34.659Z,48.35
2022-09-23T10:49:28.012Z,48.14
2022-09-23T10:52:12.085Z,47.56
2022-09-23T10:54:49.749Z,46.90
2022-09-23T10:57:40.676Z,47.99
2022-09-23T11:00:51.871Z,48.11
2022-09-23T11:03:50.741Z,47.74
2022-09-23T11:06:36.970Z,46.18
2022-09-23T11:09:17.146Z,47.00
2022-09-23T11:12:12.375Z,45.99
2022-09-23T11:14:55.298Z,48.43
2022-09-23T11:17:43.337Z,48.59
2022-09-23T11:20:37.162Z,45.76
2022-09-23T11:23:22.208Z,45.54
2022-09-23T11:25:56.317Z,46.34
2022-09-23T11:28:53.850Z,48.34
2022-09-23T11:31:43.288Z,49.30
2022-09-23T11:34:52.735Z,48.31
2022-09-23T11:37:29.911Z,48.50
2022-09-23T11:40:01.869Z,48.64
2022-09-23T11:42:33.556Z,48.74
2022-09-23T11:45:15.076Z,51.07
2022-09-23T11:47:48.209Z,49.41
2022-09-23T11:50:27.069Z,47.74
2022-09-23T11:53:03.200Z,47.68
2022-09-23T11:55:35.190Z,46.31
2022-09-23T12:01:07.858Z,47.14
2022-09-23T12:04:00.454Z,46.89
2022-09-23T12:06:43.556Z,45.98
2022-09-23T12:09:30.986Z,46.01
2022-09-23T12:12:12.424Z,47.40
2022-09-23T12:15:14.428Z,45.27
2022-09-23T12:17:54.498Z,46.65
2022-09-23T12:20:37.935Z,44.25
2022-09-23T12:23:16.340Z,44.71
2022-09-23T12:25:56.330Z,45.70
2022-09-23T12:28:30.063Z,46.81
2022-09-23T12:30:59.524Z,45.34
2022-09-23T12:33:29.920Z,43.48
2022-09-23T12:36:06.397Z,43.17
2022-09-23T12:38:34.807Z,40.93
2022-09-23T12:41:08.957Z,43.09
2022-09-23T12:43:36.366Z,40.10
2022-09-23T12:46:21.336Z,41.38
2022-09-23T12:48:58.112Z,38.45
2022-09-23T12:51:36.159Z,37.42
2022-09-23T12:54:03.453Z,37.31
2022-09-23T12:56:36.711Z,39.15
2022-09-23T12:59:31.177Z,39.56
2022-09-23T13:02:28.883Z,36.40
2022-09-23T13:05:25.556Z,36.00
2022-09-23T13:07:59.622Z,35.55
2022-09-23T13:10:29.921Z,35.14
2022-09-23T13:12:57.750Z,38.02
2022-09-23T13:15:34.049Z,38.22
2022-09-23T13:18:54.457Z,35.90
2022-09-23T13:21:43.684Z,36.30
2022-09-23T13:24:20.297Z,36.70
2022-09-23T13:26:50.530Z,37.51
2022-09-23T13:29:28.124Z,36.85
2022-09-23T13:31:57.889Z,39.89
2022-09-23T13:34:31.049Z,36.21
2022-09-23T13:36:58.908Z,35.23
2022-09-23T13:39:28.574Z,33.98
2022-09-23T13:42:00.886Z,35.21
2022-09-23T13:44:28.945Z,37.06
2022-09-23T13:47:00.760Z,40.53
2022-09-23T13:49:35.745Z,36.67
2022-09-23T13:52:03.861Z,37.47
2022-09-23T13:54:37.222Z,37.84
2022-09-23T13:57:04.811Z,37.21
2022-09-23T13:59:42.341Z,37.52
2022-09-23T14:02:16.819Z,36.74
2022-09-23T14:04:44.501Z,35.80
2022-09-23T14:07:16.194Z,36.82
2022-09-23T14:09:46.213Z,37.54
2022-09-23T14:12:14.321Z,37.24
2022-09-23T14:14:42.191Z,38.85
2022-09-23T14:17:12.566Z,40.27
2022-09-23T14:19:42.532Z,38.79
2022-09-23T14:22:29.441Z,39.43
2022-09-23T14:24:57.582Z,36.63
2022-09-23T14:27:36.467Z,36.78
2022-09-23T14:30:04.873Z,37.21
2022-09-23T14:32:32.947Z,39.48
2022-09-23T14:35:00.228Z,38.49
2022-09-23T14:37:50.730Z,38.22
2022-09-23T14:40:22.312Z,37.46
2022-09-23T14:42:52.181Z,37.65
2022-09-23T14:45:21.519Z,38.60
2022-09-23T14:47:51.305Z,38.87
2022-09-23T14:50:37.219Z,39.60
2022-09-23T14:53:17.013Z,41.10
2022-09-23T14:55:45.658Z,41.53
2022-09-23T14:58:16.868Z,43.26
2022-09-23T15:00:59.944Z,42.66
2022-09-23T15:03:28.597Z,41.18
2022-09-23T15:06:06.380Z,41.86
2022-09-23T15:08:36.384Z,41.29
2022-09-23T15:11:07.843Z,40.94
2022-09-23T15:13:46.087Z,40.90
2022-09-23T15:16:15.504Z,41.27
2022-09-23T15:18:44.868Z,41.00
2022-09-23T15:21:15.235Z,41.81
2022-09-23T15:23:55.234Z,41.86
2022-09-23T15:26:45.331Z,42.12
2022-09-23T15:29:12.986Z,43.93
2022-09-23T15:31:40.388Z,41.86
2022-09-23T15:34:10.040Z,39.40
2022-09-23T15:36:38.596Z,40.63
2022-09-23T15:39:08.641Z,40.34
2022-09-23T15:41:35.993Z,41.50
2022-09-23T15:44:14.414Z,41.73
2022-09-23T15:46:46.363Z,41.60
2022-09-23T15:49:28.456Z,42.05
2022-09-23T15:51:59.253Z,43.94
2022-09-23T15:54:28.505Z,44.41
2022-09-23T15:56:58.604Z,45.46
2022-09-23T15:59:25.938Z,45.49
2022-09-23T16:01:54.016Z,46.00
2022-09-23T16:04:21.834Z,45.99
2022-09-23T16:06:49.354Z,46.61
2022-09-23T16:09:16.757Z,46.77
2022-09-23T16:11:49.265Z,47.22
2022-09-23T16:14:17.735Z,47.27
2022-09-23T16:16:47.791Z,46.74
2022-09-23T16:19:16.151Z,47.90
2022-09-23T16:21:44.610Z,47.57
2022-09-23T16:24:15.824Z,48.38
2022-09-23T16:26:45.242Z,49.15
2022-09-23T16:29:13.494Z,49.36
2022-09-23T16:31:41.061Z,49.56
2022-09-23T16:34:08.496Z,50.09
2022-09-23T16:36:42.339Z,49.03
2022-09-23T16:39:12.517Z,49.46
2022-09-23T16:41:40.447Z,49.78
2022-09-23T16:44:09.381Z,50.41
2022-09-23T16:46:36.833Z,50.98
2022-09-23T16:49:04.697Z,51.12
2022-09-23T16:51:38.154Z,51.04
2022-09-23T16:54:10.274Z,51.35
2022-09-23T16:56:40.377Z,51.42
2022-09-23T16:59:08.264Z,52.12
2022-09-23T17:01:54.196Z,52.76
2022-09-23T17:04:22.657Z,52.88
2022-09-23T17:06:51.919Z,52.85
2022-09-23T17:09:21.142Z,53.34
2022-09-23T17:11:58.764Z,53.16
2022-09-23T17:14:26.240Z,53.23
2022-09-23T17:16:53.831Z,53.25
2022-09-23T17:19:21.177Z,53.31
2022-09-23T17:21:48.526Z,52.27
2022-09-23T17:24:16.114Z,53.64
2022-09-23T17:26:50.712Z,54.56
2022-09-23T17:29:20.609Z,55.21
2022-09-23T17:31:48.011Z,55.55
2022-09-23T17:34:16.360Z,53.17
2022-09-23T17:36:43.974Z,53.85
2022-09-23T17:39:11.312Z,54.06
2022-09-23T17:41:39.295Z,54.43
2022-09-23T17:44:08.101Z,55.84
2022-09-23T17:46:35.446Z,55.54
2022-09-23T17:49:04.092Z,55.31
2022-09-23T17:51:31.773Z,55.37
2022-09-23T17:53:59.213Z,55.70
2022-09-23T17:56:27.013Z,56.63
2022-09-23T17:58:54.625Z,56.30
2022-09-23T18:01:24.161Z,57.81
2022-09-23T18:04:09.714Z,56.23
2022-09-23T18:06:37.107Z,56.70
2022-09-23T18:09:07.640Z,57.49
2022-09-23T18:11:36.955Z,57.49
2022-09-23T18:14:11.965Z,55.43
2022-09-23T18:16:40.674Z,55.33
2022-09-23T18:19:11.360Z,55.73
2022-09-23T18:21:40.770Z,57.21
2022-09-23T18:26:59.606Z,58.69
2022-09-23T18:29:27.375Z,57.91
2022-09-23T18:31:54.897Z,58.01
2022-09-23T18:34:23.535Z,57.37
2022-09-23T18:36:51.266Z,57.65
2022-09-23T18:39:18.586Z,57.31
2022-09-23T18:41:46.040Z,57.91
2022-09-23T18:44:13.686Z,57.49
2022-09-23T18:46:41.019Z,57.71
2022-09-23T18:49:27.270Z,58.09
2022-09-23T18:51:56.387Z,59.14
2022-09-23T18:54:24.932Z,59.40
2022-09-23T18:56:52.860Z,60.05
2022-09-23T18:59:24.693Z,59.38
2022-09-23T19:01:55.356Z,59.09
2022-09-23T19:04:25.010Z,59.96
2022-09-23T19:06:53.967Z,61.84
2022-09-23T19:09:21.318Z,61.99
2022-09-23T19:11:52.518Z,61.44
2022-09-23T19:14:20.191Z,59.55
2022-09-23T19:16:49.175Z,59.76
2022-09-23T19:19:17.301Z,59.93
2022-09-23T19:21:44.816Z,59.79
2022-09-23T19:24:15.675Z,59.58
2022-09-23T19:26:46.739Z,60.09
2022-09-23T19:29:16.522Z,61.63
2022-09-23T19:31:44.355Z,60.93
2022-09-23T19:34:17.225Z,60.70
2022-09-23T19:36:46.039Z,60.49
2022-09-23T19:39:24.085Z,61.76
2022-09-23T19:41:52.594Z,61.92
2022-09-23T19:44:20.287Z,61.20
2022-09-23T19:46:53.347Z,61.08
2022-09-23T19:49:25.097Z,59.96
2022-09-23T19:51:55.721Z,60.81
2022-09-23T19:54:26.028Z,60.36
2022-09-23T19:56:53.419Z,61.12
2022-09-23T19:59:20.761Z,61.99
2022-09-23T20:01:48.757Z,61.12
2022-09-23T20:04:17.042Z,60.52
2022-09-23T20:06:45.900Z,61.27
2022-09-23T20:09:13.604Z,61.20
2022-09-23T20:11:43.110Z,62.25
2022-09-23T20:14:11.070Z,61.73
2022-09-23T20:16:38.702Z,61.34
2022-09-23T20:19:06.466Z,61.02
2022-09-23T20:21:34.386Z,60.74
2022-09-23T20:24:04.485Z,60.62
2022-09-23T20:26:51.243Z,60.67
2022-09-23T20:29:18.594Z,60.57
2022-09-23T20:31:46.289Z,61.18
2022-09-23T20:34:13.722Z,61.38
2022-09-23T20:36:41.777Z,60.64
2022-09-23T20:39:10.240Z,62.15
2022-09-23T20:41:39.256Z,61.50
2022-09-23T20:44:13.954Z,61.10
2022-09-23T20:46:47.830Z,62.39
2022-09-23T20:49:16.484Z,62.30
2022-09-23T20:51:44.457Z,61.32
2022-09-23T20:54:12.285Z,60.65
2022-09-23T20:56:39.648Z,60.29
2022-09-23T20:59:07.357Z,61.13
2022-09-23T21:01:36.478Z,61.60
2022-09-23T21:04:05.825Z,61.05
2022-09-23T21:06:34.989Z,61.20
2022-09-23T21:09:02.675Z,61.58
2022-09-23T21:11:30.619Z,60.80
2022-09-23T21:13:59.157Z,60.67
2022-09-23T21:16:26.553Z,61.56
2022-09-23T21:18:54.120Z,63.05
2022-09-23T21:21:22.407Z,62.66
2022-09-23T21:23:50.510Z,62.03
2022-09-23T21:26:23.240Z,61.79
2022-09-23T21:28:52.727Z,61.83
2022-09-23T21:31:27.632Z,61.96
2022-09-23T21:33:56.599Z,62.85
2022-09-23T21:36:24.731Z,64.28
2022-09-23T21:38:52.942Z,63.48
2022-09-23T21:41:20.574Z,62.50
2022-09-23T21:43:49.565Z,62.26
2022-09-23T21:46:21.416Z,62.91
2022-09-23T21:48:53.244Z,63.04
2022-09-23T21:51:24.966Z,61.13
2022-09-23T21:53:54.957Z,61.67
2022-09-23T21:56:27.188Z,61.38
2022-09-23T21:58:55.945Z,61.56
2022-09-23T22:01:25.415Z,62.98
2022-09-23T22:03:55.490Z,62.31
2022-09-23T22:06:26.765Z,62.02
2022-09-23T22:08:59.007Z,62.19
2022-09-23T22:11:47.539Z,62.52
2022-09-23T22:14:17.002Z,63.53
2022-09-23T22:16:44.539Z,65.37
2022-09-23T22:19:13.599Z,65.46
2022-09-23T22:21:43.156Z,64.97
2022-09-23T22:24:11.558Z,64.66
2022-09-23T22:26:41.117Z,63.39
2022-09-23T22:29:32.267Z,63.23
2022-09-23T22:32:19.745Z,62.13
2022-09-23T22:34:50.395Z,62.43
2022-09-23T22:37:21.272Z,62.21
2022-09-23T22:39:48.904Z,61.99
2022-09-23T22:42:16.269Z,62.48
2022-09-23T22:44:43.709Z,63.19
2022-09-23T22:47:11.338Z,63.57
2022-09-23T22:49:38.678Z,62.49
2022-09-23T22:52:08.042Z,61.99
2022-09-23T22:54:35.782Z,61.71
2022-09-23T22:57:07.659Z,61.85
2022-09-23T22:59:35.678Z,62.16
2022-09-23T23:02:03.601Z,62.55
2022-09-23T23:04:31.086Z,63.37
2022-09-23T23:07:02.209Z,63.30
2022-09-23T23:09:29.814Z,62.67
2022-09-23T23:11:57.112Z,62.96
2022-09-23T23:14:25.765Z,63.28
2022-09-23T23:16:53.567Z,64.16
2022-09-23T23:19:20.876Z,64.36
2022-09-23T23:21:49.734Z,63.94
2022-09-23T23:24:22.607Z,64.09
2022-09-23T23:26:51.197Z,64.08
2022-09-23T23:29:20.431Z,63.81
2022-09-23T23:31:48.564Z,63.37
2022-09-23T23:34:17.882Z,64.21
2022-09-23T23:36:46.458Z,65.39
2022-09-23T23:39:14.170Z,65.76
2022-09-23T23:41:41.712Z,65.48
2022-09-23T23:44:11.636Z,64.43
2022-09-23T23:46:39.080Z,64.36
2022-09-23T23:49:06.797Z,64.55
2022-09-23T23:51:34.425Z,65.19
2022-09-23T23:54:01.846Z,65.51
2022-09-23T23:56:30.353Z,65.18
2022-09-23T23:59:00.109Z,64.74
